Time;durP1;ratioP1;P1;durP2;ratioP2;P2;SDS_P1;SDS_P2;PMS_P1;PMS_P2;Temp;Humidity;BMP_temperature;BMP_pressure;BME280_temperature;BME280_humidity;BME280_pressure;Samples;Min_cycle;Max_cycle;Signal;HPM_P1;HPM_P2
2024/04/01 15:55:12;;;;;;;4.15;0.50;;;12.50;99.90;;;;;;5014392;28;20388;-68
2024/04/01 15:57:38;;;;;;;3.08;0.60;;;12.50;99.90;;;;;;4996640;28;20069;-66
2024/04/01 16:00:04;;;;;;;4.32;0.50;;;12.50;99.90;;;;;;4997581;28;20045;-67
2024/04/01 16:02:30;;;;;;;6.18;1.00;;;12.50;99.90;;;;;;5000078;28;20120;-67
2024/04/01 16:04:57;;;;;;;4.70;0.47;;;12.50;99.90;;;;;;4996797;28;20432;-67
2024/04/01 16:07:25;;;;;;;4.30;0.88;;;12.50;99.90;;;;;;4998483;28;20049;-67
2024/04/01 16:09:52;;;;;;;6.20;0.70;;;12.50;99.90;;;;;;4995181;28;20564;-67
2024/04/01 16:12:27;;;;;;;5.80;0.52;;;12.50;99.90;;;;;;5002781;28;20049;-67
2024/04/01 16:14:54;;;;;;;5.93;0.60;;;12.50;99.90;;;;;;4997376;28;20038;-67
2024/04/01 16:17:24;;;;;;;2.05;0.40;;;12.50;99.90;;;;;;4997516;28;20038;-67
2024/04/01 16:19:53;;;;;;;5.25;1.02;;;12.60;99.90;;;;;;4995835;28;20069;-67
2024/04/01 16:22:22;;;;;;;5.25;0.70;;;12.50;99.90;;;;;;4997594;28;20042;-67
2024/04/01 16:24:49;;;;;;;6.00;0.90;;;12.50;99.90;;;;;;4995800;28;20050;-67
2024/04/01 16:27:17;;;;;;;3.30;1.08;;;12.50;99.90;;;;;;4996700;28;20046;-67
2024/04/01 16:29:45;;;;;;;7.78;0.90;;;12.40;99.90;;;;;;5029919;28;20046;-67
2024/04/01 16:32:15;;;;;;;3.45;1.00;;;12.40;99.90;;;;;;4999369;28;20587;-67
2024/04/01 16:34:44;;;;;;;4.55;0.80;;;12.40;99.90;;;;;;4998631;28;20400;-67
2024/04/01 16:37:10;;;;;;;3.42;0.85;;;12.30;99.90;;;;;;4997433;28;20100;-67
2024/04/01 16:39:37;;;;;;;4.63;0.70;;;12.40;99.90;;;;;;4995499;28;20040;-66
2024/04/01 16:42:03;;;;;;;4.28;0.68;;;12.30;99.90;;;;;;4997244;28;20042;-66
2024/04/01 16:44:29;;;;;;;4.97;1.30;;;12.30;99.90;;;;;;4997276;28;20492;-66
2024/04/01 16:46:55;;;;;;;8.13;1.35;;;12.30;99.90;;;;;;4996173;28;20046;-66
2024/04/01 16:49:21;;;;;;;7.95;1.58;;;12.30;99.90;;;;;;4997941;28;20042;-66
2024/04/01 16:51:47;;;;;;;5.07;0.73;;;12.20;99.90;;;;;;4998231;28;20396;-67
2024/04/01 16:54:13;;;;;;;6.25;1.77;;;12.20;99.90;;;;;;4997137;28;20577;-67
2024/04/01 16:56:40;;;;;;;5.15;1.23;;;12.20;99.90;;;;;;4993517;28;20070;-66
2024/04/01 16:59:09;;;;;;;9.27;0.80;;;12.20;99.90;;;;;;4997206;28;20131;-66
2024/04/01 17:01:35;;;;;;;4.95;0.77;;;12.10;99.90;;;;;;4998091;28;20026;-67
2024/04/01 17:04:01;;;;;;;4.45;0.90;;;12.00;99.90;;;;;;4997583;28;20073;-67
2024/04/01 17:06:28;;;;;;;3.97;0.82;;;12.00;99.90;;;;;;4985561;28;20500;-66
2024/04/01 17:08:54;;;;;;;6.10;1.50;;;11.90;99.90;;;;;;4985552;28;20074;-67
2024/04/01 17:11:23;;;;;;;5.78;1.35;;;11.90;99.90;;;;;;4985447;28;20038;-67
2024/04/01 17:13:51;;;;;;;4.97;0.85;;;11.80;99.90;;;;;;5016753;28;20088;-67
2024/04/01 17:16:22;;;;;;;6.35;1.55;;;11.80;99.90;;;;;;4985516;28;20134;-66
2024/04/01 17:18:48;;;;;;;6.28;1.10;;;11.70;99.90;;;;;;4985984;28;20041;-66
2024/04/01 17:21:20;;;;;;;4.50;0.88;;;11.70;99.90;;;;;;4987014;28;20035;-66
2024/04/01 17:23:48;;;;;;;5.80;1.30;;;11.60;99.90;;;;;;4983784;28;20038;-66
2024/04/01 17:26:18;;;;;;;4.63;1.45;;;11.60;99.90;;;;;;4984682;28;20463;-67
2024/04/01 17:28:44;;;;;;;4.85;1.00;;;11.50;99.90;;;;;;4984029;28;20074;-66
2024/04/01 17:31:11;;;;;;;3.80;0.73;;;11.40;99.90;;;;;;4982762;28;20038;-67
2024/04/01 17:33:39;;;;;;;4.35;0.80;;;11.40;99.90;;;;;;5016402;28;20034;-67
2024/04/01 17:36:07;;;;;;;7.30;0.90;;;11.40;99.90;;;;;;5017667;28;20566;-67
2024/04/01 17:38:35;;;;;;;6.95;1.63;;;11.30;99.90;;;;;;5016481;28;20042;-67
2024/04/01 17:41:01;;;;;;;7.20;1.13;;;11.30;99.90;;;;;;4985393;28;20053;-67
2024/04/01 17:43:28;;;;;;;5.28;1.60;;;11.20;99.90;;;;;;4980765;28;20064;-67
2024/04/01 17:45:56;;;;;;;3.38;1.05;;;11.30;99.90;;;;;;4985361;28;20066;-67
2024/04/01 17:48:22;;;;;;;5.35;1.45;;;11.10;99.90;;;;;;4982663;28;20047;-67
2024/04/01 17:50:48;;;;;;;5.03;0.73;;;11.00;99.90;;;;;;4981896;28;20038;-67
2024/04/01 17:53:16;;;;;;;3.70;1.05;;;11.00;99.90;;;;;;4982889;28;20038;-67
2024/04/01 17:55:41;;;;;;;3.90;1.17;;;10.90;99.90;;;;;;4978446;28;20050;-67
2024/04/01 17:58:07;;;;;;;4.68;0.50;;;10.90;99.90;;;;;;4984227;28;20057;-67
2024/04/01 18:00:33;;;;;;;4.22;0.65;;;10.90;99.90;;;;;;4981564;28;20034;-67
2024/04/01 18:03:00;;;;;;;6.60;0.60;;;10.80;99.90;;;;;;5014524;28;20046;-66
2024/04/01 18:05:27;;;;;;;7.72;0.77;;;10.70;99.90;;;;;;4985100;28;20084;-66
2024/04/01 18:07:54;;;;;;;2.55;0.65;;;10.60;99.90;;;;;;4987169;28;20046;-67
2024/04/01 18:10:20;;;;;;;5.53;0.82;;;10.60;99.90;;;;;;4984766;28;20071;-66
2024/04/01 18:12:46;;;;;;;3.53;0.63;;;10.60;99.90;;;;;;4985355;28;20077;-66
2024/04/01 18:15:12;;;;;;;4.65;1.13;;;10.50;99.90;;;;;;5014779;28;20057;-66
2024/04/01 18:17:38;;;;;;;7.20;1.10;;;10.30;99.90;;;;;;4985523;28;20038;-66
2024/04/01 18:20:06;;;;;;;6.32;1.48;;;10.30;99.90;;;;;;4982030;28;20102;-66
2024/04/01 18:22:33;;;;;;;3.90;1.40;;;10.30;99.90;;;;;;4967118;28;20047;-66
2024/04/01 18:24:59;;;;;;;4.68;1.10;;;10.30;99.90;;;;;;4984774;28;20082;-67
2024/04/01 18:27:30;;;;;;;3.92;1.95;;;10.20;99.90;;;;;;4981253;28;20104;-67
2024/04/01 18:29:59;;;;;;;6.32;1.00;;;10.20;99.90;;;;;;4984983;28;20130;-67
2024/04/01 18:32:28;;;;;;;5.25;1.90;;;10.10;99.90;;;;;;4983992;28;20121;-67
2024/04/01 18:34:55;;;;;;;6.05;1.42;;;10.00;99.90;;;;;;4984277;28;20042;-67
2024/04/01 18:37:22;;;;;;;7.88;1.55;;;10.70;99.90;;;;;;4986022;28;20124;-67
2024/04/01 18:39:48;;;;;;;8.88;2.08;;;9.90;99.90;;;;;;4983668;28;20042;-67
2024/04/01 18:42:14;;;;;;;4.70;1.98;;;9.90;99.90;;;;;;4985041;28;20034;-67
2024/04/01 18:44:41;;;;;;;5.07;2.75;;;9.80;99.90;;;;;;4983910;28;20046;-67
2024/04/01 18:47:07;;;;;;;5.47;2.50;;;9.80;99.90;;;;;;4981102;28;20054;-67
2024/04/01 18:49:33;;;;;;;4.07;2.42;;;9.80;99.90;;;;;;4984701;28;20050;-66
2024/04/01 18:52:08;;;;;;;4.72;2.05;;;9.70;99.90;;;;;;4982154;28;20096;-66
2024/04/01 18:54:34;;;;;;;9.27;2.15;;;9.70;99.90;;;;;;4982639;28;20421;-66
2024/04/01 18:57:02;;;;;;;6.65;2.00;;;9.70;99.90;;;;;;4985484;28;20125;-66
2024/04/01 18:59:28;;;;;;;5.50;1.60;;;9.70;99.90;;;;;;4983265;28;20057;-66
2024/04/01 19:01:54;;;;;;;5.82;1.30;;;9.60;99.90;;;;;;4984113;28;20872;-66
2024/04/01 19:04:19;;;;;;;5.03;1.50;;;9.60;99.90;;;;;;4981103;28;20413;-66
2024/04/01 19:06:47;;;;;;;3.75;1.55;;;9.50;99.90;;;;;;4984392;28;20038;-66
2024/04/01 19:09:14;;;;;;;8.00;2.13;;;9.60;99.90;;;;;;4982105;28;20046;-66
2024/04/01 19:11:40;;;;;;;4.55;1.80;;;9.50;99.90;;;;;;4984726;28;20371;-67
2024/04/01 19:14:05;;;;;;;5.15;1.70;;;9.50;99.90;;;;;;4983703;28;20045;-67
2024/04/01 19:16:31;;;;;;;7.05;1.90;;;9.40;99.90;;;;;;4980867;28;20552;-67
2024/04/01 19:18:57;;;;;;;3.97;1.23;;;9.40;99.90;;;;;;4981432;28;20089;-67
2024/04/01 19:21:22;;;;;;;4.25;1.60;;;9.30;99.90;;;;;;4982495;28;20035;-67
2024/04/01 19:23:48;;;;;;;2.95;1.20;;;9.30;99.90;;;;;;4981011;28;20118;-67
2024/04/01 19:26:15;;;;;;;4.72;1.50;;;9.20;99.90;;;;;;4981276;28;20101;-67
2024/04/01 19:28:41;;;;;;;3.47;1.40;;;9.10;99.90;;;;;;4981911;28;20137;-67
2024/04/01 19:31:07;;;;;;;3.58;1.35;;;9.10;99.90;;;;;;4984122;28;20121;-67
2024/04/01 19:33:45;;;;;;;4.70;2.13;;;9.00;99.90;;;;;;4982949;28;20101;-67
2024/04/01 19:36:15;;;;;;;5.07;1.52;;;8.90;99.90;;;;;;4985914;28;20493;-67
2024/04/01 19:38:40;;;;;;;4.50;1.80;;;8.90;99.90;;;;;;4982860;28;20045;-67
2024/04/01 19:41:06;;;;;;;3.22;1.65;;;8.80;99.90;;;;;;4983492;28;20477;-66
2024/04/01 19:43:33;;;;;;;3.00;1.55;;;8.80;99.90;;;;;;4981777;28;20103;-66
2024/04/01 19:45:59;;;;;;;5.40;2.15;;;8.90;99.90;;;;;;4983395;28;20485;-66
2024/04/01 19:48:28;;;;;;;7.63;3.75;;;8.60;99.90;;;;;;4981772;28;20046;-66
2024/04/01 19:50:55;;;;;;;6.50;3.60;;;8.60;99.90;;;;;;4982358;28;20614;-66
2024/04/01 19:53:22;;;;;;;7.05;3.00;;;8.70;99.90;;;;;;4981596;28;20485;-66
2024/04/01 19:55:51;;;;;;;6.35;2.60;;;8.60;99.90;;;;;;4982135;28;20086;-66
2024/04/01 19:58:17;;;;;;;5.10;2.55;;;8.60;99.90;;;;;;4980771;28;20034;-66
2024/04/01 20:00:43;;;;;;;3.45;2.78;;;8.60;99.90;;;;;;4986970;28;20085;-66
2024/04/01 20:03:09;;;;;;;7.00;3.80;;;8.60;99.90;;;;;;4981998;28;20050;-66
2024/04/01 20:05:36;;;;;;;7.85;3.60;;;9.30;99.90;;;;;;4983503;28;20096;-66
2024/04/01 20:08:32;;;;;;;5.88;3.40;;;8.50;99.90;;;;;;4986642;28;20038;-66
2024/04/01 20:10:58;;;;;;;3.38;1.95;;;8.50;99.90;;;;;;4980659;28;20402;-66
2024/04/01 20:13:24;;;;;;;5.88;3.17;;;8.50;99.90;;;;;;4980093;28;20101;-66
2024/04/01 20:15:50;;;;;;;4.55;2.45;;;8.50;99.90;;;;;;4986224;28;20046;-66
2024/04/01 20:18:18;;;;;;;3.45;1.98;;;8.70;99.90;;;;;;4984077;28;20104;-66
2024/04/01 20:20:47;;;;;;;5.53;2.65;;;8.50;99.90;;;;;;4980908;28;20046;-66
2024/04/01 20:23:16;;;;;;;4.55;2.50;;;8.50;99.90;;;;;;4978447;28;20078;-66
2024/04/01 20:25:43;;;;;;;4.13;2.40;;;8.60;99.90;;;;;;4982169;28;20085;-66
2024/04/01 20:28:12;;;;;;;4.63;2.40;;;8.50;99.90;;;;;;4982742;28;20097;-66
2024/04/01 20:30:39;;;;;;;3.33;2.22;;;8.60;99.90;;;;;;4981974;28;20049;-67
2024/04/01 20:33:11;;;;;;;4.30;2.53;;;8.60;99.90;;;;;;4982631;28;20092;-67
2024/04/01 20:35:37;;;;;;;4.60;2.30;;;8.70;99.90;;;;;;4980972;28;20030;-67
2024/04/01 20:38:04;;;;;;;3.90;2.60;;;8.70;99.90;;;;;;4984268;28;20038;-67
2024/04/01 20:40:34;;;;;;;6.13;2.45;;;8.70;99.90;;;;;;4982991;28;20702;-67
2024/04/01 20:43:02;;;;;;;10.57;3.08;;;8.70;99.90;;;;;;4985649;28;20034;-66
2024/04/01 20:45:28;;;;;;;6.13;2.88;;;9.10;99.90;;;;;;4985357;28;20039;-66
2024/04/01 20:47:54;;;;;;;7.22;3.17;;;8.70;99.90;;;;;;4986321;28;20035;-66
2024/04/01 20:50:24;;;;;;;4.28;3.00;;;8.70;99.90;;;;;;4984441;28;20038;-66
2024/04/01 20:53:03;;;;;;;7.10;4.57;;;8.70;99.90;;;;;;4982452;28;20482;-67
2024/04/01 20:55:34;;;;;;;7.97;6.82;;;8.70;99.90;;;;;;4984906;28;20042;-67
2024/04/01 20:58:15;;;;;;;7.10;5.85;;;8.80;99.90;;;;;;5017917;28;20125;-66
2024/04/01 21:00:41;;;;;;;10.75;5.93;;;8.90;99.90;;;;;;4987118;28;20037;-66
2024/04/01 21:03:28;;;;;;;7.40;5.22;;;8.90;99.90;;;;;;4984981;28;20478;-66
2024/04/01 21:05:54;;;;;;;6.00;4.10;;;8.90;99.90;;;;;;4985141;28;20363;-66
2024/04/01 21:08:19;;;;;;;7.32;4.43;;;8.90;99.90;;;;;;4989980;28;20042;-66
2024/04/01 21:10:45;;;;;;;6.22;3.80;;;8.90;99.90;;;;;;4986342;28;20141;-66
2024/04/01 21:13:11;;;;;;;6.15;3.70;;;8.90;99.90;;;;;;4986976;28;20053;-66
2024/04/01 21:15:37;;;;;;;9.35;4.22;;;8.90;99.90;;;;;;4985377;28;20392;-66
2024/04/01 21:18:03;;;;;;;3.83;3.42;;;8.90;99.90;;;;;;4982796;28;20061;-66
2024/04/01 21:20:28;;;;;;;10.13;4.50;;;8.90;99.90;;;;;;4985562;28;20604;-66
2024/04/01 21:22:54;;;;;;;8.45;3.90;;;8.90;99.90;;;;;;4986419;28;20034;-66
2024/04/01 21:25:22;;;;;;;7.93;3.50;;;8.90;99.90;;;;;;4987350;28;20093;-66
2024/04/01 21:27:48;;;;;;;5.20;3.80;;;8.80;99.90;;;;;;4983594;28;20074;-66
2024/04/01 21:30:13;;;;;;;6.70;4.18;;;8.90;99.90;;;;;;4986382;28;20042;-66
2024/04/01 21:32:39;;;;;;;7.40;4.57;;;8.90;99.90;;;;;;4986167;28;20045;-66
2024/04/01 21:35:05;;;;;;;6.28;4.30;;;8.80;99.90;;;;;;4984089;28;20039;-66
2024/04/01 21:37:38;;;;;;;8.65;4.25;;;8.80;99.90;;;;;;4987851;28;20447;-66
2024/04/01 21:40:04;;;;;;;5.20;3.72;;;8.80;99.90;;;;;;4987278;28;20492;-66
2024/04/01 21:42:29;;;;;;;7.32;4.03;;;8.70;99.90;;;;;;4989166;28;20043;-66
2024/04/01 21:44:55;;;;;;;6.93;4.93;;;8.70;99.90;;;;;;4985146;28;20050;-66
2024/04/01 21:47:21;;;;;;;4.72;4.32;;;8.70;99.90;;;;;;4985649;28;20049;-66
2024/04/01 21:49:47;;;;;;;9.23;4.43;;;8.70;99.90;;;;;;4990041;28;20038;-66
2024/04/01 21:52:12;;;;;;;5.50;3.97;;;8.60;99.90;;;;;;4984203;28;20042;-67
2024/04/01 21:54:38;;;;;;;8.00;5.25;;;8.60;99.90;;;;;;4987536;28;20567;-67
2024/04/01 21:57:04;;;;;;;5.15;4.47;;;8.50;99.90;;;;;;4987571;28;20039;-67
2024/04/01 21:59:29;;;;;;;11.77;9.40;;;8.60;99.90;;;;;;4986925;28;20093;-67
2024/04/01 22:01:55;;;;;;;15.23;11.98;;;8.50;99.90;;;;;;4987184;28;20185;-67
2024/04/01 22:04:25;;;;;;;14.90;13.35;;;8.50;99.90;;;;;;4986881;28;20045;-67
2024/04/01 22:06:51;;;;;;;16.85;12.90;;;8.50;99.90;;;;;;4990950;28;20043;-67
2024/04/01 22:09:17;;;;;;;14.07;12.57;;;8.50;99.90;;;;;;4991434;28;20046;-67
2024/04/01 22:11:42;;;;;;;11.93;9.30;;;8.40;99.90;;;;;;4970969;28;20053;-67
2024/04/01 22:14:08;;;;;;;10.45;8.60;;;8.40;99.90;;;;;;4984032;28;20086;-67
2024/04/01 22:16:33;;;;;;;11.40;7.80;;;8.40;99.90;;;;;;4982893;28;20086;-67
2024/04/01 22:18:59;;;;;;;9.68;7.45;;;8.40;99.90;;;;;;5018270;28;20045;-67
2024/04/01 22:21:25;;;;;;;11.60;7.78;;;8.40;99.90;;;;;;4981014;28;20045;-67
2024/04/01 22:23:50;;;;;;;8.00;6.40;;;8.30;99.90;;;;;;4983606;28;20134;-67
2024/04/01 22:26:16;;;;;;;7.68;5.80;;;8.30;99.90;;;;;;4988599;28;20401;-67
2024/04/01 22:28:41;;;;;;;6.78;5.80;;;8.20;99.90;;;;;;4985342;28;20046;-67
2024/04/01 22:31:07;;;;;;;9.52;6.13;;;8.30;99.90;;;;;;5016784;28;20049;-67
2024/04/01 22:33:32;;;;;;;7.68;6.82;;;8.30;99.90;;;;;;4982486;28;20424;-67
2024/04/01 22:35:58;;;;;;;8.95;6.03;;;8.30;99.90;;;;;;4989659;28;20042;-67
2024/04/01 22:38:24;;;;;;;8.32;5.97;;;8.20;99.90;;;;;;4987653;28;20104;-67
2024/04/01 22:40:49;;;;;;;8.05;6.10;;;8.20;99.90;;;;;;5015637;28;20117;-66
2024/04/01 22:43:19;;;;;;;7.03;6.32;;;8.20;99.90;;;;;;4985297;28;20035;-66
2024/04/01 22:45:44;;;;;;;8.48;7.00;;;8.20;99.90;;;;;;4985522;28;20054;-66
2024/04/01 22:48:10;;;;;;;13.05;7.32;;;8.20;99.90;;;;;;4987997;28;20916;-66
2024/04/01 22:50:35;;;;;;;8.80;6.85;;;8.20;99.90;;;;;;4983729;28;20039;-67
2024/04/01 22:53:01;;;;;;;6.90;6.20;;;8.20;99.90;;;;;;5014625;28;20549;-66
2024/04/01 22:55:26;;;;;;;10.73;6.93;;;8.20;99.90;;;;;;4986779;28;20088;-66
2024/04/01 22:57:52;;;;;;;8.18;6.57;;;8.20;99.90;;;;;;4986193;28;20064;-67
2024/04/01 23:00:18;;;;;;;8.77;7.75;;;9.00;99.90;;;;;;4984923;28;20085;-66
2024/04/01 23:02:52;;;;;;;8.15;6.40;;;8.10;99.90;;;;;;4983516;28;20050;-66
2024/04/01 23:05:18;;;;;;;9.75;6.50;;;8.10;99.90;;;;;;4983450;28;20101;-66
2024/04/01 23:08:02;;;;;;;9.13;7.22;;;8.10;99.90;;;;;;5016085;28;20069;-66
2024/04/01 23:10:30;;;;;;;12.13;7.47;;;8.10;99.90;;;;;;4985882;28;20609;-66
2024/04/01 23:12:55;;;;;;;7.68;6.78;;;8.00;99.90;;;;;;4983200;28;20065;-66
2024/04/01 23:15:22;;;;;;;9.20;7.00;;;8.00;99.90;;;;;;4985522;28;20038;-66
2024/04/01 23:17:47;;;;;;;8.98;7.47;;;8.00;99.90;;;;;;4971215;28;20113;-66
2024/04/01 23:20:13;;;;;;;7.90;7.10;;;8.00;99.90;;;;;;4985490;28;20456;-66
2024/04/01 23:22:38;;;;;;;10.38;7.63;;;7.90;99.90;;;;;;4986181;28;20039;-66
2024/04/01 23:25:04;;;;;;;10.20;7.95;;;7.90;99.90;;;;;;4983521;28;20045;-66
2024/04/01 23:27:30;;;;;;;8.25;7.43;;;7.90;99.90;;;;;;4984689;28;20619;-66
2024/04/01 23:29:55;;;;;;;11.15;7.22;;;7.90;99.90;;;;;;4982679;28;20042;-66
2024/04/01 23:32:21;;;;;;;10.18;7.15;;;7.90;99.90;;;;;;4984330;28;20411;-66
2024/04/01 23:34:46;;;;;;;8.48;6.88;;;7.80;99.90;;;;;;4983860;28;20046;-66
2024/04/01 23:37:12;;;;;;;9.15;7.03;;;7.80;99.90;;;;;;4982614;28;20696;-67
2024/04/01 23:39:38;;;;;;;8.40;6.93;;;7.80;99.90;;;;;;4984398;28;20037;-67
2024/04/01 23:42:03;;;;;;;10.15;7.63;;;7.80;99.90;;;;;;4981994;28;20114;-67
2024/04/01 23:44:29;;;;;;;9.70;6.82;;;7.80;99.90;;;;;;4986182;28;20030;-66
2024/04/01 23:46:55;;;;;;;8.35;6.88;;;7.80;99.90;;;;;;4986930;28;20058;-66
2024/04/01 23:49:21;;;;;;;7.85;6.93;;;7.80;99.90;;;;;;4984245;28;20053;-66
2024/04/01 23:51:46;;;;;;;7.82;7.05;;;7.80;99.90;;;;;;4983533;28;20041;-66
2024/04/01 23:54:12;;;;;;;10.25;7.03;;;7.80;99.90;;;;;;5017942;28;20065;-66
2024/04/01 23:56:37;;;;;;;8.65;6.60;;;7.80;99.90;;;;;;4984082;28;20074;-66
2024/04/01 23:59:03;;;;;;;8.05;7.13;;;7.80;99.90;;;;;;4983237;28;20073;-66
